Terminal Aerodrome Forecast
Issued by NWS Twin Cities, MN

Home | Current Version | Previous Version | Text Only | Print | Product List | Glossary Off
Versions: 1 2 3 4 5 6 7 8 9 10 11 12 13 14 15 16 17

000
FTUS43 KMPX 052335
TAFSTC
TAF
KSTC 052335Z 0600/0624 21007KT P6SM BKN022 OVC035
     FM060300 24006KT P6SM SCT009 OVC017
     FM060700 22005KT P6SM SCT150
     FM061700 19011KT P6SM BKN100=

USA.gov is the U.S. government's official web portal to all federal, state and local government web resources and services.